This is the latest recevied weather packets stored in our database for station/object IU5JAE-13. If no packets are shown the sender has not sent any weather packets the latest 10 day(s).
| Time | Temp. | Humidity | Pressure | Rain* | Wind** | Luminosity | Snow |
|---|---|---|---|---|---|---|---|
| 1777199132 | 17.78° C | 71% | 1018.6 hPa | 0 mm | - | 638 W/m² | - |
| 1777198530 | 17.78° C | 70% | 1018.5 hPa | 0 mm | - | 632 W/m² | - |
| 1777197927 | 18.33° C | 69% | 1018.5 hPa | 0 mm | - | 629 W/m² | - |
| 1777197325 | 17.78° C | 70% | 1018.5 hPa | 0 mm | - | 604 W/m² | - |
| 1777196723 | 17.22° C | 70% | 1018.5 hPa | 0 mm | - | 603 W/m² | - |
| 1777196120 | 17.78° C | 69% | 1018.5 hPa | 0 mm | - | 604 W/m² | - |
| 1777195518 | 16.67° C | 70% | 1018.5 hPa | 0 mm | - | 595 W/m² | - |
| 1777194915 | 17.22° C | 69% | 1018.4 hPa | 0 mm | - | 573 W/m² | - |
| 1777194333 | 16.67° C | 68% | 1018.5 hPa | 0 mm | - | 551 W/m² | - |
| 1777193731 | 16.11° C | 69% | 1018.4 hPa | 0 mm | - | 528 W/m² | - |
| 1777193128 | 15.56° C | 69% | 1018.4 hPa | 0 mm | - | 510 W/m² | - |
| 1777192526 | 15° C | 69% | 1018.3 hPa | 0 mm | - | 496 W/m² | - |
| 1777191923 | 15.56° C | 69% | 1018.3 hPa | 0 mm | - | 480 W/m² | - |
| 1777191321 | 15° C | 70% | 1018.2 hPa | 0 mm | - | 466 W/m² | - |
| 1777190718 | 15° C | 68% | 1018.1 hPa | 0 mm | - | 454 W/m² | - |
| 1777190116 | 15° C | 69% | 1018 hPa | 0 mm | - | 441 W/m² | - |
| 1777189534 | 14.44° C | 70% | 1017.9 hPa | 0 mm | - | 418 W/m² | - |
| 1777188931 | 15° C | 69% | 1017.8 hPa | 0 mm | - | 384 W/m² | - |
| 1777188329 | 14.44° C | 71% | 1017.8 hPa | 0 mm | - | 350 W/m² | - |
| 1777187727 | 14.44° C | 71% | 1017.8 hPa | 0 mm | - | 320 W/m² | - |
| 1777187124 | 13.89° C | 73% | 1017.8 hPa | 0 mm | - | 288 W/m² | - |
| 1777186522 | 13.89° C | 70% | 1017.8 hPa | 0 mm | - | 257 W/m² | - |
| 1777185919 | 13.33° C | 73% | 1017.8 hPa | 0 mm | - | 222 W/m² | - |
| 1777185317 | 13.33° C | 71% | 1017.7 hPa | 0 mm | - | 191 W/m² | - |
| 1777184735 | 13.33° C | 70% | 1017.5 hPa | 0 mm | - | 161 W/m² | - |
* Rain latest hour (hover to see other rain measurements)
** Current wind speed in m/s (hover to see current wind gust speed)